Terminal Aerodrome Forecast
Issued by NWS Cleveland, OH

Home | Current Version | Previous Version | Graphics & Text | Print | Product List | Glossary On
Versions: 1 2 3 4 5 6 7 8 9 10 11 12 13 14
929
FTUS41 KCLE 232335
TAFYNG
TAF
KYNG 232335Z 2400/2424 15008KT P6SM SCT200
     FM240700 16010KT P6SM VCSH SCT050 OVC080
     FM241000 18009KT P6SM OVC050 WS020/23045KT
     FM241700 22015KT P6SM SCT030 BKN050=

USA.gov is the U.S. government's official web portal to all federal, state and local government web resources and services.